Time;durP1;ratioP1;P1;durP2;ratioP2;P2;SDS_P1;SDS_P2;PMS_P1;PMS_P2;Temp;Humidity;BMP_temperature;BMP_pressure;BME280_temperature;BME280_humidity;BME280_pressure;Samples;Min_cycle;Max_cycle;Signal;HPM_P1;HPM_P2
2021/07/20 00:00:50;;;;;;;;;;;;;;;19.60;75.52;100658.88;4982207;28;19924;-68
2021/07/20 00:03:34;;;;;;;;;;;;;;;19.50;75.54;100657.56;4997286;28;20394;-68
2021/07/20 00:06:18;;;;;;;;;;;;;;;19.46;76.32;100662.50;4982765;28;19968;-68
2021/07/20 00:09:03;;;;;;;;;;;;;;;19.40;76.86;100654.31;4996809;28;19935;-68
2021/07/20 00:11:47;;;;;;;;;;;;;;;19.32;76.81;100658.00;4982096;28;19960;-68
2021/07/20 00:14:31;;;;;;;;;;;;;;;19.31;77.29;100652.75;4968689;28;19967;-68
2021/07/20 00:17:15;;;;;;;;;;;;;;;19.28;77.25;100655.84;4997038;28;19944;-68
2021/07/20 00:19:58;;;;;;;;;;;;;;;19.28;77.43;100662.09;4982090;28;19925;-65
2021/07/20 00:22:42;;;;;;;;;;;;;;;19.22;77.52;100660.16;4982218;28;20012;-68
2021/07/20 00:25:26;;;;;;;;;;;;;;;19.20;77.87;100661.38;4996887;28;19920;-69
2021/07/20 00:28:10;;;;;;;;;;;;;;;19.17;77.73;100664.44;4981786;28;19921;-68
2021/07/20 00:30:54;;;;;;;;;;;;;;;19.07;78.42;100653.91;4968142;28;19968;-68
2021/07/20 00:33:38;;;;;;;;;;;;;;;19.02;78.70;100660.91;4981804;28;19920;-68
2021/07/20 00:36:22;;;;;;;;;;;;;;;18.97;79.03;100661.47;4981900;28;19921;-68
2021/07/20 00:39:06;;;;;;;;;;;;;;;18.94;78.86;100661.00;4996451;28;20286;-68
2021/07/20 00:41:50;;;;;;;;;;;;;;;18.92;78.76;100658.50;4981833;28;20024;-68
2021/07/20 00:44:34;;;;;;;;;;;;;;;18.89;79.37;100652.63;4981579;28;20009;-69
2021/07/20 00:47:17;;;;;;;;;;;;;;;18.88;79.45;100656.34;4981728;28;20334;-69
2021/07/20 00:50:02;;;;;;;;;;;;;;;18.77;79.77;100654.13;4981968;28;20290;-68
2021/07/20 00:52:46;;;;;;;;;;;;;;;18.77;80.15;100654.13;4981706;28;19921;-69
2021/07/20 00:55:30;;;;;;;;;;;;;;;18.72;80.28;100656.53;4981325;28;19920;-69
2021/07/20 00:58:14;;;;;;;;;;;;;;;18.70;80.49;100656.75;4981438;28;19929;-69
2021/07/20 01:00:58;;;;;;;;;;;;;;;18.64;80.61;100657.47;5017314;23;19928;-70
2021/07/20 01:03:42;;;;;;;;;;;;;;;18.61;81.00;100659.72;5000876;28;20287;-69
2021/07/20 01:06:26;;;;;;;;;;;;;;;18.57;81.01;100664.66;5000796;28;20031;-70
2021/07/20 01:09:10;;;;;;;;;;;;;;;18.52;81.25;100663.53;5015495;28;19920;-70
2021/07/20 01:11:54;;;;;;;;;;;;;;;18.50;81.86;100658.34;4967895;28;19964;-70
2021/07/20 01:14:38;;;;;;;;;;;;;;;18.45;82.00;100659.91;4981186;28;19968;-70
2021/07/20 01:17:22;;;;;;;;;;;;;;;18.42;82.36;100660.25;4980952;28;19920;-70
2021/07/20 01:20:16;;;;;;;;;;;;;;;18.35;82.82;100659.34;4966978;28;19941;-70
2021/07/20 01:23:09;;;;;;;;;;;;;;;18.33;82.92;100665.94;4981143;28;19980;-70
2021/07/20 01:25:53;;;;;;;;;;;;;;;18.30;82.95;100659.03;4981310;28;19968;-70
2021/07/20 01:28:37;;;;;;;;;;;;;;;18.30;83.45;100655.53;4967246;28;19960;-70
2021/07/20 01:31:23;;;;;;;;;;;;;;;18.27;83.59;100651.28;4980824;28;19921;-70
2021/07/20 01:34:07;;;;;;;;;;;;;;;18.26;83.59;100648.75;4980688;28;19956;-70
2021/07/20 01:36:50;;;;;;;;;;;;;;;18.23;84.54;100654.53;4980773;28;19956;-70
2021/07/20 01:39:35;;;;;;;;;;;;;;;18.22;84.49;100642.88;4980553;28;20445;-70
2021/07/20 01:42:19;;;;;;;;;;;;;;;18.17;85.30;100642.63;4967029;28;19920;-70
2021/07/20 01:45:03;;;;;;;;;;;;;;;18.12;85.48;100642.31;4980625;28;20410;-70
2021/07/20 01:47:47;;;;;;;;;;;;;;;18.10;85.62;100657.03;4980298;28;20298;-70
2021/07/20 01:50:31;;;;;;;;;;;;;;;18.07;86.00;100658.22;4980436;28;19921;-70
2021/07/20 01:53:15;;;;;;;;;;;;;;;17.98;87.57;100661.16;4966867;28;19968;-70
2021/07/20 01:55:59;;;;;;;;;;;;;;;17.87;88.09;100664.28;4980444;28;19920;-70
2021/07/20 01:58:43;;;;;;;;;;;;;;;17.77;89.39;100669.94;4980287;28;19923;-70
2021/07/20 02:01:37;;;;;;;;;;;;;;;17.70;89.63;100662.78;4979908;28;20278;-70
2021/07/20 02:10:26;;;;;;;;;;;;;;;17.55;90.38;100664.53;4982675;28;19921;-69
2021/07/20 02:13:14;;;;;;;;;;;;;;;17.54;90.53;100661.03;4980165;28;20290;-70
2021/07/20 02:15:58;;;;;;;;;;;;;;;17.51;91.04;100653.28;4980602;28;20021;-69
2021/07/20 02:18:43;;;;;;;;;;;;;;;17.48;91.91;100652.78;4979867;28;19924;-69
2021/07/20 02:21:27;;;;;;;;;;;;;;;17.41;92.37;100655.38;4966077;28;20405;-70
2021/07/20 02:24:11;;;;;;;;;;;;;;;17.29;93.21;100648.69;4966033;28;19920;-69
2021/07/20 02:26:55;;;;;;;;;;;;;;;17.24;93.75;100656.47;4980012;28;19979;-69
2021/07/20 02:29:39;;;;;;;;;;;;;;;17.18;94.38;100649.09;4979847;28;19920;-70
2021/07/20 02:32:24;;;;;;;;;;;;;;;17.15;94.50;100649.44;4966248;28;19972;-69
2021/07/20 02:35:08;;;;;;;;;;;;;;;17.13;93.83;100658.72;4966063;28;19967;-69
2021/07/20 02:37:52;;;;;;;;;;;;;;;17.06;94.07;100650.50;4980103;28;20373;-69
2021/07/20 02:40:36;;;;;;;;;;;;;;;17.03;94.07;100658.94;4979487;28;19925;-69
2021/07/20 02:43:20;;;;;;;;;;;;;;;16.98;93.34;100655.94;4965810;28;20294;-69
2021/07/20 02:46:05;;;;;;;;;;;;;;;16.99;92.93;100652.22;4966113;28;19924;-69
2021/07/20 02:48:50;;;;;;;;;;;;;;;16.98;92.67;100655.09;4979410;28;19925;-70
2021/07/20 02:51:34;;;;;;;;;;;;;;;16.98;93.32;100645.16;4979619;28;20008;-69
2021/07/20 02:54:19;;;;;;;;;;;;;;;16.96;94.32;100654.41;4979340;28;20008;-70
2021/07/20 02:57:03;;;;;;;;;;;;;;;16.93;95.53;100652.09;4994391;28;19937;-70
2021/07/20 02:59:48;;;;;;;;;;;;;;;16.89;96.42;100656.97;4979308;28;19926;-68
2021/07/20 03:02:33;;;;;;;;;;;;;;;16.84;96.31;100659.38;4979705;28;19920;-69
2021/07/20 03:05:17;;;;;;;;;;;;;;;16.77;96.28;100647.63;4965913;28;19960;-70
2021/07/20 03:08:01;;;;;;;;;;;;;;;16.70;96.97;100645.78;4979451;28;19921;-69
2021/07/20 03:10:45;;;;;;;;;;;;;;;16.64;97.32;100641.94;4965517;28;19929;-70
2021/07/20 03:13:29;;;;;;;;;;;;;;;16.61;97.41;100653.06;4979798;28;19920;-69
2021/07/20 03:16:13;;;;;;;;;;;;;;;16.61;96.93;100652.22;4979461;28;19972;-69
2021/07/20 03:18:57;;;;;;;;;;;;;;;16.61;96.92;100653.06;4983271;28;20410;-70
2021/07/20 03:21:41;;;;;;;;;;;;;;;16.63;96.48;100651.03;4969390;28;20059;-69
2021/07/20 03:24:25;;;;;;;;;;;;;;;16.64;95.44;100646.47;4983733;28;19925;-69
2021/07/20 03:27:09;;;;;;;;;;;;;;;16.63;95.47;100653.72;4982862;28;19921;-69
2021/07/20 03:29:53;;;;;;;;;;;;;;;16.60;95.46;100648.66;4983023;28;20020;-69
2021/07/20 03:32:38;;;;;;;;;;;;;;;16.62;94.79;100649.38;4983368;28;19936;-69
2021/07/20 03:35:22;;;;;;;;;;;;;;;16.61;94.73;100646.84;4983210;28;20041;-70
2021/07/20 03:38:06;;;;;;;;;;;;;;;16.60;94.76;100653.22;4982969;28;20056;-69
2021/07/20 03:40:50;;;;;;;;;;;;;;;16.60;94.62;100654.06;4982582;28;19921;-70
2021/07/20 03:43:35;;;;;;;;;;;;;;;16.59;94.36;100660.47;4969003;28;20028;-70
2021/07/20 03:46:19;;;;;;;;;;;;;;;16.58;94.43;100664.16;4983154;28;19921;-69
2021/07/20 03:49:03;;;;;;;;;;;;;;;16.55;95.00;100669.91;4982661;28;19940;-70
2021/07/20 03:51:47;;;;;;;;;;;;;;;16.54;95.19;100662.84;4982719;28;19920;-69
2021/07/20 03:54:31;;;;;;;;;;;;;;;16.54;95.46;100667.38;4982649;28;20286;-70
2021/07/20 03:57:17;;;;;;;;;;;;;;;16.54;95.27;100662.84;4997406;28;20009;-70
2021/07/20 04:00:02;;;;;;;;;;;;;;;16.54;95.44;100662.84;4982232;28;20462;-70
2021/07/20 04:02:50;;;;;;;;;;;;;;;16.52;95.37;100670.25;4982652;28;20005;-69
2021/07/20 04:05:35;;;;;;;;;;;;;;;16.51;95.67;100667.72;4969234;28;19921;-70
2021/07/20 04:08:19;;;;;;;;;;;;;;;16.52;95.50;100669.41;4982477;28;19968;-69
2021/07/20 04:11:03;;;;;;;;;;;;;;;16.49;95.98;100670.56;4982008;28;20008;-69
2021/07/20 04:13:48;;;;;;;;;;;;;;;16.51;96.01;100668.59;4982282;28;19920;-70
2021/07/20 04:16:35;;;;;;;;;;;;;;;16.50;96.48;100677.63;4983214;28;19995;-70
2021/07/20 04:19:19;;;;;;;;;;;;;;;16.52;96.41;100675.63;4982123;28;19921;-70
2021/07/20 04:22:03;;;;;;;;;;;;;;;16.52;96.23;100675.63;4982197;28;20390;-70
2021/07/20 04:24:47;;;;;;;;;;;;;;;16.53;95.91;100676.47;4968148;28;19972;-70
2021/07/20 04:27:31;;;;;;;;;;;;;;;16.58;95.79;100674.09;4968082;28;19920;-70
2021/07/20 04:30:15;;;;;;;;;;;;;;;16.53;96.56;100677.31;4967576;28;20059;-70
2021/07/20 04:32:58;;;;;;;;;;;;;;;16.59;96.32;100683.88;4981694;28;19920;-70
2021/07/20 04:35:42;;;;;;;;;;;;;;;16.61;96.57;100682.69;4968090;28;19921;-69
2021/07/20 04:38:30;;;;;;;;;;;;;;;16.63;96.50;100688.72;4981880;28;19972;-70
2021/07/20 04:41:15;;;;;;;;;;;;;;;16.64;96.09;100689.56;4982205;28;20394;-70
2021/07/20 04:43:58;;;;;;;;;;;;;;;16.67;95.97;100690.06;4981643;28;19920;-70
2021/07/20 04:46:44;;;;;;;;;;;;;;;16.69;95.01;100692.59;4981722;28;19921;-70
2021/07/20 04:49:28;;;;;;;;;;;;;;;16.76;94.60;100699.78;4967809;28;19964;-69
2021/07/20 04:52:12;;;;;;;;;;;;;;;16.85;94.03;100700.59;4967600;28;19921;-70
2021/07/20 04:54:56;;;;;;;;;;;;;;;16.97;93.64;100697.34;4981221;28;19937;-69
2021/07/20 04:57:40;;;;;;;;;;;;;;;17.10;92.86;100696.78;4967814;28;20012;-70
2021/07/20 05:00:24;;;;;;;;;;;;;;;17.23;91.90;100699.75;4980982;28;20005;-70
2021/07/20 05:03:08;;;;;;;;;;;;;;;17.35;90.83;100701.91;4981418;28;19920;-69
2021/07/20 05:05:52;;;;;;;;;;;;;;;17.44;89.82;100706.25;4981337;28;19920;-69
2021/07/20 05:08:37;;;;;;;;;;;;;;;17.49;89.48;100709.25;4967602;28;20389;-69
2021/07/20 05:11:21;;;;;;;;;;;;;;;17.56;88.72;100720.13;4980871;28;20000;-68
2021/07/20 05:14:05;;;;;;;;;;;;;;;17.67;88.60;100712.50;4967846;28;20056;-68
2021/07/20 05:16:49;;;;;;;;;;;;;;;17.75;88.29;100715.16;4981382;28;19936;-69
2021/07/20 05:19:33;;;;;;;;;;;;;;;17.79;88.19;100721.03;4980709;28;20462;-69
2021/07/20 05:22:18;;;;;;;;;;;;;;;17.81;89.24;100718.97;4981024;28;19920;-70
2021/07/20 05:25:05;;;;;;;;;;;;;;;17.87;89.37;100721.78;4980963;28;20350;-69
2021/07/20 05:27:52;;;;;;;;;;;;;;;17.89;89.40;100727.84;4980588;28;19920;-69
2021/07/20 05:30:36;;;;;;;;;;;;;;;17.92;88.99;100727.47;4995231;28;19972;-69
2021/07/20 05:33:20;;;;;;;;;;;;;;;17.93;88.85;100721.06;4967168;28;20029;-69
2021/07/20 05:36:05;;;;;;;;;;;;;;;17.96;87.69;100723.41;4967164;28;20348;-70
2021/07/20 05:38:49;;;;;;;;;;;;;;;18.02;88.14;100719.97;4966800;28;19947;-70
2021/07/20 05:41:33;;;;;;;;;;;;;;;18.07;87.08;100714.91;4979442;28;19920;-67
2021/07/20 05:44:16;;;;;;;;;;;;;;;18.14;86.42;100723.91;4980379;28;19922;-70
2021/07/20 05:47:00;;;;;;;;;;;;;;;18.21;86.44;100719.47;4980606;28;20386;-70
2021/07/20 05:49:44;;;;;;;;;;;;;;;18.22;86.97;100723.84;4980306;28;19929;-70
2021/07/20 05:52:28;;;;;;;;;;;;;;;18.31;85.85;100722.78;4980235;28;19921;-70
2021/07/20 05:55:13;;;;;;;;;;;;;;;18.36;84.52;100733.03;4980503;28;20020;-69
2021/07/20 05:57:57;;;;;;;;;;;;;;;18.39;84.75;100730.81;4966761;28;19921;-70
2021/07/20 06:00:40;;;;;;;;;;;;;;;18.46;84.32;100737.19;4966618;28;19921;-70
2021/07/20 06:03:26;;;;;;;;;;;;;;;18.54;83.24;100737.94;4980082;28;19920;-70
2021/07/20 06:06:10;;;;;;;;;;;;;;;18.59;84.18;100740.09;4966691;28;20446;-69
2021/07/20 06:08:57;;;;;;;;;;;;;;;18.68;83.67;100730.88;4980371;28;20008;-69
2021/07/20 06:11:41;;;;;;;;;;;;;;;18.78;82.29;100739.53;4979904;28;20021;-70
2021/07/20 06:14:25;;;;;;;;;;;;;;;18.83;81.62;100739.81;4966635;28;20080;-69
2021/07/20 06:17:09;;;;;;;;;;;;;;;18.82;81.68;100740.84;4966340;28;20052;-70
2021/07/20 06:19:57;;;;;;;;;;;;;;;18.83;81.93;100737.09;4980109;28;19921;-70
2021/07/20 06:22:45;;;;;;;;;;;;;;;18.83;80.91;100743.38;4979828;28;19921;-70
2021/07/20 06:25:29;;;;;;;;;;;;;;;18.95;80.68;100749.13;4966075;28;19960;-70
2021/07/20 06:28:13;;;;;;;;;;;;;;;18.96;79.76;100740.00;4979852;28;19920;-69
2021/07/20 06:30:58;;;;;;;;;;;;;;;19.04;80.26;100742.59;4966283;28;19924;-67
2021/07/20 06:33:42;;;;;;;;;;;;;;;19.15;79.91;100751.09;4979986;28;19920;-70
2021/07/20 06:36:26;;;;;;;;;;;;;;;19.20;77.85;100750.56;4979540;28;19968;-70
2021/07/20 06:39:10;;;;;;;;;;;;;;;19.22;76.67;100753.91;4979462;28;19952;-69
2021/07/20 06:41:54;;;;;;;;;;;;;;;19.23;76.38;100752.88;4979968;28;20381;-70
2021/07/20 06:44:37;;;;;;;;;;;;;;;19.26;76.10;100758.75;4979753;28;19964;-70
2021/07/20 06:47:24;;;;;;;;;;;;;;;19.29;76.32;100755.66;4979671;28;19920;-70
2021/07/20 06:50:09;;;;;;;;;;;;;;;19.38;74.98;100742.91;4979796;28;20291;-70
2021/07/20 06:52:52;;;;;;;;;;;;;;;19.54;74.74;100750.78;4983313;28;19921;-70
2021/07/20 06:55:37;;;;;;;;;;;;;;;19.62;76.30;100748.78;4985810;28;19921;-70
2021/07/20 06:58:21;;;;;;;;;;;;;;;19.67;73.51;100749.06;4985894;28;19960;-70
2021/07/20 07:01:05;;;;;;;;;;;;;;;19.67;73.45;100740.97;4987315;28;20013;-70
2021/07/20 07:03:54;;;;;;;;;;;;;;;19.76;73.87;100749.78;4986359;28;19968;-70
2021/07/20 07:06:44;;;;;;;;;;;;;;;19.92;74.48;100754.97;4986037;28;20385;-70
2021/07/20 07:09:29;;;;;;;;;;;;;;;19.99;72.64;100750.47;4985782;28;19983;-70
2021/07/20 07:12:12;;;;;;;;;;;;;;;20.10;70.71;100755.41;4972279;28;19960;-69
2021/07/20 07:14:56;;;;;;;;;;;;;;;20.16;69.71;100757.31;4985915;28;19964;-69
2021/07/20 07:17:40;;;;;;;;;;;;;;;20.26;70.26;100757.81;4972217;28;19921;-70
2021/07/20 07:20:26;;;;;;;;;;;;;;;20.40;70.91;100759.63;4985792;28;19964;-70
2021/07/20 07:23:10;;;;;;;;;;;;;;;20.50;69.43;100760.13;4985829;28;19960;-70
2021/07/20 07:25:57;;;;;;;;;;;;;;;20.60;69.13;100761.44;4985551;28;19920;-70
2021/07/20 07:28:45;;;;;;;;;;;;;;;20.68;67.97;100760.47;4972316;28;19964;-70
2021/07/20 07:31:29;;;;;;;;;;;;;;;20.75;67.84;100769.50;4985446;28;19937;-70
2021/07/20 07:34:13;;;;;;;;;;;;;;;20.76;67.59;100763.03;4985747;28;19921;-70
2021/07/20 07:36:57;;;;;;;;;;;;;;;20.82;67.35;100764.97;4971759;28;19921;-70
2021/07/20 07:39:41;;;;;;;;;;;;;;;20.91;68.05;100763.81;4985585;28;19955;-70
2021/07/20 07:42:24;;;;;;;;;;;;;;;21.02;67.04;100757.81;4971972;28;19936;-70
2021/07/20 07:45:09;;;;;;;;;;;;;;;21.01;67.68;100758.88;4985971;28;19921;-69
2021/07/20 07:47:52;;;;;;;;;;;;;;;21.06;66.98;100756.38;4985708;28;19921;-70
2021/07/20 07:50:36;;;;;;;;;;;;;;;21.08;66.72;100754.31;4971669;28;19925;-70
2021/07/20 07:53:20;;;;;;;;;;;;;;;21.11;67.43;100748.47;4971943;28;19976;-70
2021/07/20 07:56:04;;;;;;;;;;;;;;;21.13;67.40;100758.09;4971951;28;19973;-70
2021/07/20 07:58:48;;;;;;;;;;;;;;;21.22;65.90;100754.19;4985239;28;20410;-70
2021/07/20 08:01:32;;;;;;;;;;;;;;;21.37;67.13;100755.72;4985133;28;20421;-68
2021/07/20 08:04:20;;;;;;;;;;;;;;;21.41;65.54;100761.56;4982818;28;19921;-70
2021/07/20 08:07:04;;;;;;;;;;;;;;;21.55;66.54;100758.72;4982440;28;19921;-70
2021/07/20 08:09:48;;;;;;;;;;;;;;;21.68;62.85;100756.06;4981868;28;19925;-68
2021/07/20 08:12:32;;;;;;;;;;;;;;;21.74;64.05;100766.13;4982408;28;19968;-70
2021/07/20 08:15:16;;;;;;;;;;;;;;;21.83;62.29;100762.19;4982010;28;20441;-70
2021/07/20 08:18:00;;;;;;;;;;;;;;;21.92;62.96;100763.69;4968084;28;19920;-69
2021/07/20 08:20:45;;;;;;;;;;;;;;;22.02;64.49;100772.22;4968098;28;19920;-69
2021/07/20 08:23:30;;;;;;;;;;;;;;;22.14;63.46;100769.75;4982003;28;20051;-70
2021/07/20 08:26:18;;;;;;;;;;;;;;;22.14;61.90;100769.75;4968240;28;19921;-69
2021/07/20 08:29:04;;;;;;;;;;;;;;;22.34;61.31;100765.19;4981956;28;19941;-69
2021/07/20 08:31:59;;;;;;;;;;;;;;;22.36;62.00;100772.09;4968242;28;19936;-70
2021/07/20 08:35:03;;;;;;;;;;;;;;;22.48;60.71;100767.75;4981797;28;19960;-70
2021/07/20 08:37:47;;;;;;;;;;;;;;;22.62;59.39;100769.41;4996939;28;20266;-69
2021/07/20 08:40:50;;;;;;;;;;;;;;;22.75;58.53;100772.13;4981874;28;19919;-70
2021/07/20 08:43:56;;;;;;;;;;;;;;;22.86;59.74;100766.03;4996247;28;19921;-70
2021/07/20 08:46:40;;;;;;;;;;;;;;;22.98;58.05;100767.06;4981717;28;19920;-69
2021/07/20 08:49:33;;;;;;;;;;;;;;;22.99;57.81;100774.19;4996262;28;19924;-70
2021/07/20 08:52:18;;;;;;;;;;;;;;;23.10;57.27;100772.66;4981313;28;19921;-70
2021/07/20 08:55:17;;;;;;;;;;;;;;;23.23;56.91;100768.06;4981604;28;19940;-69
2021/07/20 08:58:19;;;;;;;;;;;;;;;23.38;56.39;100771.38;4981733;28;20071;-70
2021/07/20 09:01:13;;;;;;;;;;;;;;;23.56;56.09;100770.69;4995738;28;19920;-70
2021/07/20 09:04:07;;;;;;;;;;;;;;;23.67;56.13;100759.13;4981165;28;20351;-70
2021/07/20 09:06:54;;;;;;;;;;;;;;;23.71;55.63;100761.19;4981707;28;19960;-70
2021/07/20 09:09:39;;;;;;;;;;;;;;;23.83;56.16;100762.16;4980951;28;19967;-70
2021/07/20 09:12:27;;;;;;;;;;;;;;;23.95;55.86;100763.19;4967618;28;19920;-70
2021/07/20 09:15:12;;;;;;;;;;;;;;;24.00;54.20;100759.78;4967884;28;19920;-70
2021/07/20 09:18:13;;;;;;;;;;;;;;;24.08;53.33;100761.22;4995996;28;20330;-70
2021/07/20 09:21:00;;;;;;;;;;;;;;;24.09;50.27;100770.22;4980901;28;19921;-68
2021/07/20 09:23:46;;;;;;;;;;;;;;;24.23;50.44;100761.75;4981385;28;19968;-70
2021/07/20 09:26:35;;;;;;;;;;;;;;;24.32;51.70;100762.31;4980841;28;19920;-70
2021/07/20 09:29:21;;;;;;;;;;;;;;;24.33;50.40;100761.25;4995553;28;19979;-70
2021/07/20 09:32:13;;;;;;;;;;;;;;;24.35;51.05;100765.44;4967257;28;19932;-70
2021/07/20 09:34:59;;;;;;;;;;;;;;;24.58;50.61;100754.78;4980570;28;19921;-70
2021/07/20 09:37:48;;;;;;;;;;;;;;;24.81;48.59;100748.72;4980769;28;19921;-70
2021/07/20 09:40:49;;;;;;;;;;;;;;;24.89;47.34;100751.97;4967030;28;19921;-70
2021/07/20 09:43:33;;;;;;;;;;;;;;;25.24;47.76;100749.53;4980773;28;19936;-70
2021/07/20 09:46:18;;;;;;;;;;;;;;;25.51;47.08;100748.16;4995237;28;19920;-69
2021/07/20 09:49:04;;;;;;;;;;;;;;;25.77;46.98;100742.34;4980457;28;19924;-68
2021/07/20 09:51:48;;;;;;;;;;;;;;;25.84;45.12;100745.81;4995223;28;19968;-70
2021/07/20 09:54:53;;;;;;;;;;;;;;;26.07;45.81;100748.66;4980439;28;20282;-70
2021/07/20 09:57:43;;;;;;;;;;;;;;;26.17;45.60;100738.84;4944656;28;19920;-70
2021/07/20 10:00:33;;;;;;;;;;;;;;;26.44;45.29;100739.25;4979996;28;19925;-70
2021/07/20 10:03:23;;;;;;;;;;;;;;;26.57;43.98;100730.84;4995015;28;19963;-70
2021/07/20 10:06:13;;;;;;;;;;;;;;;26.88;44.53;100738.72;4980315;28;20294;-69
2021/07/20 10:09:02;;;;;;;;;;;;;;;27.11;44.04;100734.06;4979995;28;19927;-70
2021/07/20 10:12:03;;;;;;;;;;;;;;;27.27;43.17;100736.06;4980169;28;19920;-70
2021/07/20 10:14:50;;;;;;;;;;;;;;;27.44;42.16;100729.63;4966973;28;19920;-69
2021/07/20 10:17:40;;;;;;;;;;;;;;;27.86;41.70;100728.31;4994789;28;20294;-70
2021/07/20 10:20:29;;;;;;;;;;;;;;;28.29;39.92;100723.03;4979931;28;19921;-67
2021/07/20 10:23:26;;;;;;;;;;;;;;;28.98;39.52;100722.56;4994995;28;19960;-68
2021/07/20 10:26:15;;;;;;;;;;;;;;;29.55;39.15;100732.13;4995094;28;19920;-68
2021/07/20 10:29:04;;;;;;;;;;;;;;;30.10;37.56;100719.00;4980555;28;19925;-68
2021/07/20 10:31:49;;;;;;;;;;;;;;;30.87;34.75;100729.34;4980214;28;19920;-68
2021/07/20 10:34:33;;;;;;;;;;;;;;;31.98;33.08;100726.00;4966882;28;19920;-68
2021/07/20 10:37:19;;;;;;;;;;;;;;;32.99;30.77;100716.66;4966318;28;19920;-69
2021/07/20 10:40:07;;;;;;;;;;;;;;;34.40;29.69;100717.66;4966119;28;19936;-69
2021/07/20 10:42:53;;;;;;;;;;;;;;;35.48;27.67;100711.28;4979696;28;19921;-68
2021/07/20 10:45:38;;;;;;;;;;;;;;;36.30;25.79;100717.09;4979921;28;19921;-66
2021/07/20 10:48:28;;;;;;;;;;;;;;;37.59;23.73;100712.19;4965917;28;19964;-69
2021/07/20 10:51:13;;;;;;;;;;;;;;;38.52;23.81;100715.03;4966127;28;19924;-69
2021/07/20 10:54:04;;;;;;;;;;;;;;;38.90;22.50;100703.16;4979741;28;20321;-69
2021/07/20 10:57:01;;;;;;;;;;;;;;;39.11;22.40;100717.38;4979483;28;19967;-67
2021/07/20 11:00:03;;;;;;;;;;;;;;;39.91;21.72;100710.25;4979908;28;20331;-69
2021/07/20 11:02:48;;;;;;;;;;;;;;;40.14;21.37;100704.22;4994401;28;20013;-69
2021/07/20 11:05:31;;;;;;;;;;;;;;;40.80;20.65;100698.03;4979663;28;20052;-69
2021/07/20 11:08:15;;;;;;;;;;;;;;;39.90;20.25;100703.00;4979540;28;20398;-69
2021/07/20 11:10:59;;;;;;;;;;;;;;;40.16;20.49;100701.91;4965783;28;19924;-68
2021/07/20 11:13:45;;;;;;;;;;;;;;;40.48;20.42;100707.00;4979807;28;19920;-69
2021/07/20 11:16:30;;;;;;;;;;;;;;;41.11;19.46;100701.38;4965990;28;20389;-69
2021/07/20 11:19:14;;;;;;;;;;;;;;;41.57;18.65;100698.56;4966114;28;19920;-69
2021/07/20 11:21:58;;;;;;;;;;;;;;;41.90;17.82;100704.25;4966004;28;19920;-69
2021/07/20 11:24:42;;;;;;;;;;;;;;;42.20;18.28;100701.09;4965808;28;20032;-69
2021/07/20 11:27:26;;;;;;;;;;;;;;;41.44;18.57;100702.41;4965927;28;20385;-69
2021/07/20 11:30:15;;;;;;;;;;;;;;;40.81;18.41;100701.66;4965369;28;20425;-69
2021/07/20 11:33:00;;;;;;;;;;;;;;;40.56;19.24;100694.13;4979781;28;20273;-69
2021/07/20 11:35:49;;;;;;;;;;;;;;;40.63;18.84;100700.06;4979149;28;20093;-69
2021/07/20 11:38:33;;;;;;;;;;;;;;;41.89;17.56;100697.84;4965924;28;19921;-69
2021/07/20 11:41:29;;;;;;;;;;;;;;;41.87;16.81;100693.75;4983035;28;19929;-69
2021/07/20 11:44:13;;;;;;;;;;;;;;;42.54;16.97;100688.75;4982952;28;19964;-69
2021/07/20 11:47:16;;;;;;;;;;;;;;;42.77;16.93;100687.97;4997750;28;19997;-69
2021/07/20 11:50:03;;;;;;;;;;;;;;;41.78;17.78;100693.81;4997336;28;19964;-69
2021/07/20 11:52:46;;;;;;;;;;;;;;;40.62;18.56;100685.25;4982979;28;19921;-69
2021/07/20 11:55:40;;;;;;;;;;;;;;;40.29;18.82;100681.34;4997383;28;19921;-69
2021/07/20 11:58:42;;;;;;;;;;;;;;;40.75;19.20;100680.59;4982455;28;19968;-69
2021/07/20 12:01:35;;;;;;;;;;;;;;;41.37;18.37;100682.53;4997155;28;20028;-69
2021/07/20 12:04:22;;;;;;;;;;;;;;;42.38;17.95;100674.53;4997818;28;19920;-69
2021/07/20 12:07:09;;;;;;;;;;;;;;;42.85;17.67;100675.84;4969004;28;19921;-69
2021/07/20 12:09:59;;;;;;;;;;;;;;;42.41;17.17;100667.41;4982351;28;19920;-69
2021/07/20 12:12:54;;;;;;;;;;;;;;;41.66;18.55;100667.69;4982569;28;19980;-68
2021/07/20 12:15:37;;;;;;;;;;;;;;;41.71;18.57;100671.13;4982531;28;19920;-67
2021/07/20 12:18:22;;;;;;;;;;;;;;;40.67;19.07;100673.06;4982114;28;20286;-69
2021/07/20 12:21:05;;;;;;;;;;;;;;;40.98;18.70;100679.22;4982067;28;19928;-69
2021/07/20 12:23:55;;;;;;;;;;;;;;;41.69;18.67;100665.03;4982031;28;19920;-69
2021/07/20 12:26:39;;;;;;;;;;;;;;;41.70;18.23;100661.09;4982843;28;19976;-69
2021/07/20 12:29:22;;;;;;;;;;;;;;;41.96;18.73;100672.91;4982360;28;19963;-69
2021/07/20 12:32:12;;;;;;;;;;;;;;;42.23;17.93;100666.75;4981969;28;19920;-69
2021/07/20 12:34:59;;;;;;;;;;;;;;;42.44;17.52;100656.31;4982109;28;20283;-69
2021/07/20 12:37:43;;;;;;;;;;;;;;;41.93;18.22;100667.19;4981740;28;19980;-69
2021/07/20 12:40:27;;;;;;;;;;;;;;;42.28;17.94;100668.53;4968399;28;19924;-69
2021/07/20 12:43:13;;;;;;;;;;;;;;;42.69;17.60;100663.66;4981980;28;19937;-69
2021/07/20 12:45:56;;;;;;;;;;;;;;;42.67;17.39;100662.38;4981976;28;19975;-69
2021/07/20 12:48:50;;;;;;;;;;;;;;;42.72;17.14;100665.78;4981861;28;19921;-69
2021/07/20 12:51:35;;;;;;;;;;;;;;;42.40;16.43;100661.00;4981534;28;20405;-69
2021/07/20 12:54:32;;;;;;;;;;;;;;;40.58;16.61;100667.50;4981625;28;19920;-69
2021/07/20 12:57:16;;;;;;;;;;;;;;;41.05;17.15;100668.34;4996494;28;20013;-69
2021/07/20 13:00:00;;;;;;;;;;;;;;;41.71;16.56;100653.53;5005594;22;20473;-67
2021/07/20 13:02:44;;;;;;;;;;;;;;;40.85;17.52;100658.72;5000717;28;20076;-67
2021/07/20 13:05:28;;;;;;;;;;;;;;;41.45;17.20;100658.44;5000573;28;19920;-66
2021/07/20 13:08:13;;;;;;;;;;;;;;;41.77;17.69;100655.78;5000958;28;19959;-68
2021/07/20 13:10:57;;;;;;;;;;;;;;;41.63;17.84;100646.78;4986514;28;19922;-68
2021/07/20 13:13:41;;;;;;;;;;;;;;;42.19;17.70;100654.59;5000870;28;20432;-68
2021/07/20 13:16:25;;;;;;;;;;;;;;;41.73;17.25;100652.00;4986553;28;19920;-68
2021/07/20 13:19:15;;;;;;;;;;;;;;;41.03;16.70;100653.88;5015128;28;19924;-68
2021/07/20 13:21:59;;;;;;;;;;;;;;;39.42;18.26;100654.00;5000896;28;20297;-68
2021/07/20 13:24:43;;;;;;;;;;;;;;;40.36;17.42;100633.31;4987232;28;19963;-68
2021/07/20 13:27:29;;;;;;;;;;;;;;;40.49;17.77;100644.34;5015257;28;19964;-68
2021/07/20 13:30:18;;;;;;;;;;;;;;;40.98;17.35;100648.47;5000320;28;19972;-66
2021/07/20 13:33:02;;;;;;;;;;;;;;;40.87;17.36;100642.41;5000396;28;20020;-68
2021/07/20 13:35:47;;;;;;;;;;;;;;;40.99;18.74;100650.94;5000084;28;19921;-68
2021/07/20 13:38:31;;;;;;;;;;;;;;;41.18;18.54;100642.94;5015227;28;20396;-68
2021/07/20 13:41:15;;;;;;;;;;;;;;;41.21;18.81;100647.06;4999933;28;19925;-68
2021/07/20 13:43:59;;;;;;;;;;;;;;;41.11;17.74;100644.63;4999980;28;19924;-68
2021/07/20 13:46:44;;;;;;;;;;;;;;;41.11;16.65;100645.44;5000190;28;20355;-68
2021/07/20 13:49:31;;;;;;;;;;;;;;;40.64;17.98;100643.00;4986425;28;19964;-68
2021/07/20 13:52:17;;;;;;;;;;;;;;;39.92;17.72;100642.91;5014915;28;20012;-67
2021/07/20 13:55:06;;;;;;;;;;;;;;;40.01;18.25;100643.69;4986658;28;19920;-67
2021/07/20 13:57:50;;;;;;;;;;;;;;;39.59;17.19;100650.06;5000063;28;19924;-67
2021/07/20 14:00:34;;;;;;;;;;;;;;;39.81;18.66;100644.38;4999613;28;19924;-67
2021/07/20 14:03:18;;;;;;;;;;;;;;;39.64;17.83;100649.94;4998805;28;19975;-67
2021/07/20 14:06:02;;;;;;;;;;;;;;;39.79;17.97;100646.66;4986170;28;20334;-67
2021/07/20 14:08:46;;;;;;;;;;;;;;;39.76;18.56;100636.16;5014588;28;20286;-68
2021/07/20 14:11:30;;;;;;;;;;;;;;;39.76;18.39;100643.69;4999429;28;20401;-67
2021/07/20 14:14:14;;;;;;;;;;;;;;;39.71;18.52;100627.97;4999440;28;20050;-67
2021/07/20 14:16:58;;;;;;;;;;;;;;;39.31;19.42;100631.16;4985643;28;19947;-67